sensor_id;sensor_type;location;lat;lon;timestamp;pressure;altitude;pressure_sealevel;temperature
10058;BMP180;5068;51.286;7.518;2022-08-05T00:00:24;99206.00;;;25.20
10058;BMP180;5068;51.286;7.518;2022-08-05T00:01:59;99211.00;;;25.20
10058;BMP180;5068;51.286;7.518;2022-08-05T00:03:43;99220.00;;;25.20
10058;BMP180;5068;51.286;7.518;2022-08-05T00:05:17;99216.00;;;25.20
10058;BMP180;5068;51.286;7.518;2022-08-05T00:07:11;99209.00;;;25.20
10058;BMP180;5068;51.286;7.518;2022-08-05T00:09:05;99206.00;;;25.20
10058;BMP180;5068;51.286;7.518;2022-08-05T00:10:48;99205.00;;;25.10
10058;BMP180;5068;51.286;7.518;2022-08-05T00:12:21;99215.00;;;25.10
10058;BMP180;5068;51.286;7.518;2022-08-05T00:13:55;99207.00;;;25.10
10058;BMP180;5068;51.286;7.518;2022-08-05T00:15:28;99191.00;;;25.10
10058;BMP180;5068;51.286;7.518;2022-08-05T00:17:22;99185.00;;;25.10
10058;BMP180;5068;51.286;7.518;2022-08-05T00:18:56;99181.00;;;25.10
10058;BMP180;5068;51.286;7.518;2022-08-05T00:20:30;99186.00;;;25.10
10058;BMP180;5068;51.286;7.518;2022-08-05T00:22:04;99181.00;;;25.00
10058;BMP180;5068;51.286;7.518;2022-08-05T00:23:44;99182.00;;;25.00
10058;BMP180;5068;51.286;7.518;2022-08-05T00:25:38;99178.00;;;25.00
10058;BMP180;5068;51.286;7.518;2022-08-05T00:27:18;99180.00;;;25.00
10058;BMP180;5068;51.286;7.518;2022-08-05T00:29:00;99170.00;;;25.00
10058;BMP180;5068;51.286;7.518;2022-08-05T00:30:34;99176.00;;;25.00
10058;BMP180;5068;51.286;7.518;2022-08-05T00:32:08;99163.00;;;25.00
10058;BMP180;5068;51.286;7.518;2022-08-05T00:33:46;99159.00;;;24.90
10058;BMP180;5068;51.286;7.518;2022-08-05T00:35:40;99154.00;;;24.90
10058;BMP180;5068;51.286;7.518;2022-08-05T00:37:34;99147.00;;;24.90
10058;BMP180;5068;51.286;7.518;2022-08-05T00:39:25;99152.00;;;24.90
10058;BMP180;5068;51.286;7.518;2022-08-05T00:41:08;99151.00;;;24.90
10058;BMP180;5068;51.286;7.518;2022-08-05T00:42:44;99150.00;;;24.90
10058;BMP180;5068;51.286;7.518;2022-08-05T00:44:21;99149.00;;;24.90
10058;BMP180;5068;51.286;7.518;2022-08-05T00:46:02;99158.00;;;24.90
10058;BMP180;5068;51.286;7.518;2022-08-05T00:47:36;99147.00;;;24.90
10058;BMP180;5068;51.286;7.518;2022-08-05T00:49:30;99141.00;;;24.90
10058;BMP180;5068;51.286;7.518;2022-08-05T00:51:22;99138.00;;;24.80
10058;BMP180;5068;51.286;7.518;2022-08-05T00:53:18;99137.00;;;24.80
10058;BMP180;5068;51.286;7.518;2022-08-05T00:55:13;99140.00;;;24.80
10058;BMP180;5068;51.286;7.518;2022-08-05T00:56:46;99138.00;;;24.80
10058;BMP180;5068;51.286;7.518;2022-08-05T00:58:24;99142.00;;;24.80
10058;BMP180;5068;51.286;7.518;2022-08-05T00:59:58;99133.00;;;24.80
10058;BMP180;5068;51.286;7.518;2022-08-05T01:01:32;99136.00;;;24.70
10058;BMP180;5068;51.286;7.518;2022-08-05T01:03:20;99139.00;;;24.70
10058;BMP180;5068;51.286;7.518;2022-08-05T01:04:54;99143.00;;;24.60
10058;BMP180;5068;51.286;7.518;2022-08-05T01:06:28;99132.00;;;24.60
10058;BMP180;5068;51.286;7.518;2022-08-05T01:08:05;99138.00;;;24.50
10058;BMP180;5068;51.286;7.518;2022-08-05T01:10:01;99145.00;;;24.50
10058;BMP180;5068;51.286;7.518;2022-08-05T01:11:43;99147.00;;;24.50
10058;BMP180;5068;51.286;7.518;2022-08-05T01:13:31;99147.00;;;24.40
10058;BMP180;5068;51.286;7.518;2022-08-05T01:15:41;99140.00;;;24.40
10058;BMP180;5068;51.286;7.518;2022-08-05T01:17:30;99146.00;;;24.30
10058;BMP180;5068;51.286;7.518;2022-08-05T01:19:28;99148.00;;;24.30
10058;BMP180;5068;51.286;7.518;2022-08-05T01:21:57;99139.00;;;24.20
10058;BMP180;5068;51.286;7.518;2022-08-05T01:23:54;99133.00;;;24.20
10058;BMP180;5068;51.286;7.518;2022-08-05T01:25:48;99138.00;;;24.10
10058;BMP180;5068;51.286;7.518;2022-08-05T01:29:52;99137.00;;;23.90
10058;BMP180;5068;51.286;7.518;2022-08-05T01:31:36;99139.00;;;23.90
10058;BMP180;5068;51.286;7.518;2022-08-05T01:33:21;99137.00;;;23.90
10058;BMP180;5068;51.286;7.518;2022-08-05T01:35:02;99137.00;;;23.80
10058;BMP180;5068;51.286;7.518;2022-08-05T01:36:49;99133.00;;;23.80
10058;BMP180;5068;51.286;7.518;2022-08-05T01:38:26;99138.00;;;23.80
10058;BMP180;5068;51.286;7.518;2022-08-05T01:40:04;99139.00;;;23.70
10058;BMP180;5068;51.286;7.518;2022-08-05T01:41:41;99145.00;;;23.70
10058;BMP180;5068;51.286;7.518;2022-08-05T01:43:17;99145.00;;;23.70
10058;BMP180;5068;51.286;7.518;2022-08-05T01:44:55;99139.00;;;23.70
10058;BMP180;5068;51.286;7.518;2022-08-05T01:46:32;99133.00;;;23.70
10058;BMP180;5068;51.286;7.518;2022-08-05T01:48:19;99141.00;;;23.60
10058;BMP180;5068;51.286;7.518;2022-08-05T01:49:54;99146.00;;;23.60
10058;BMP180;5068;51.286;7.518;2022-08-05T01:51:35;99138.00;;;23.50
10058;BMP180;5068;51.286;7.518;2022-08-05T01:53:12;99144.00;;;23.50
10058;BMP180;5068;51.286;7.518;2022-08-05T01:55:10;99145.00;;;23.50
10058;BMP180;5068;51.286;7.518;2022-08-05T01:56:47;99147.00;;;23.40
10058;BMP180;5068;51.286;7.518;2022-08-05T01:58:43;99153.00;;;23.40
10058;BMP180;5068;51.286;7.518;2022-08-05T02:00:23;99143.00;;;23.40
10058;BMP180;5068;51.286;7.518;2022-08-05T02:02:03;99147.00;;;23.30
10058;BMP180;5068;51.286;7.518;2022-08-05T02:03:48;99152.00;;;23.30
10058;BMP180;5068;51.286;7.518;2022-08-05T02:05:32;99144.00;;;23.30
10058;BMP180;5068;51.286;7.518;2022-08-05T02:07:07;99138.00;;;23.20
10058;BMP180;5068;51.286;7.518;2022-08-05T02:08:53;99136.00;;;23.20
10058;BMP180;5068;51.286;7.518;2022-08-05T02:10:40;99130.00;;;23.20
10058;BMP180;5068;51.286;7.518;2022-08-05T02:12:21;99128.00;;;23.20
10058;BMP180;5068;51.286;7.518;2022-08-05T02:14:04;99142.00;;;23.10
10058;BMP180;5068;51.286;7.518;2022-08-05T02:15:48;99149.00;;;23.10
10058;BMP180;5068;51.286;7.518;2022-08-05T02:17:30;99148.00;;;23.10
10058;BMP180;5068;51.286;7.518;2022-08-05T02:19:32;99148.00;;;23.00
10058;BMP180;5068;51.286;7.518;2022-08-05T02:21:12;99156.00;;;22.90
10058;BMP180;5068;51.286;7.518;2022-08-05T02:22:54;99155.00;;;22.90
10058;BMP180;5068;51.286;7.518;2022-08-05T02:24:36;99164.00;;;22.80
10058;BMP180;5068;51.286;7.518;2022-08-05T02:26:19;99151.00;;;22.80
10058;BMP180;5068;51.286;7.518;2022-08-05T02:27:58;99154.00;;;22.80
10058;BMP180;5068;51.286;7.518;2022-08-05T02:29:41;99160.00;;;22.70
10058;BMP180;5068;51.286;7.518;2022-08-05T02:31:34;99155.00;;;22.70
10058;BMP180;5068;51.286;7.518;2022-08-05T02:33:10;99164.00;;;22.60
10058;BMP180;5068;51.286;7.518;2022-08-05T02:34:59;99178.00;;;22.60
10058;BMP180;5068;51.286;7.518;2022-08-05T02:36:49;99197.00;;;22.60
10058;BMP180;5068;51.286;7.518;2022-08-05T02:38:27;99207.00;;;22.60
10058;BMP180;5068;51.286;7.518;2022-08-05T02:40:09;99219.00;;;22.50
10058;BMP180;5068;51.286;7.518;2022-08-05T02:41:46;99224.00;;;22.50
10058;BMP180;5068;51.286;7.518;2022-08-05T02:43:33;99223.00;;;22.50
10058;BMP180;5068;51.286;7.518;2022-08-05T02:45:30;99223.00;;;22.60
10058;BMP180;5068;51.286;7.518;2022-08-05T02:47:25;99225.00;;;22.60
10058;BMP180;5068;51.286;7.518;2022-08-05T02:49:22;99221.00;;;22.70
10058;BMP180;5068;51.286;7.518;2022-08-05T02:50:59;99221.00;;;22.70
10058;BMP180;5068;51.286;7.518;2022-08-05T02:52:33;99221.00;;;22.70
10058;BMP180;5068;51.286;7.518;2022-08-05T02:54:08;99223.00;;;22.70
10058;BMP180;5068;51.286;7.518;2022-08-05T02:56:03;99229.00;;;22.70
10058;BMP180;5068;51.286;7.518;2022-08-05T02:57:39;99229.00;;;22.70
10058;BMP180;5068;51.286;7.518;2022-08-05T03:02:06;99236.00;;;22.70
10058;BMP180;5068;51.286;7.518;2022-08-05T03:03:43;99234.00;;;22.70
10058;BMP180;5068;51.286;7.518;2022-08-05T03:05:34;99237.00;;;22.70
10058;BMP180;5068;51.286;7.518;2022-08-05T03:07:28;99249.00;;;22.70
10058;BMP180;5068;51.286;7.518;2022-08-05T03:09:22;99250.00;;;22.70
10058;BMP180;5068;51.286;7.518;2022-08-05T03:11:17;99237.00;;;22.70
10058;BMP180;5068;51.286;7.518;2022-08-05T03:13:12;99237.00;;;22.70
10058;BMP180;5068;51.286;7.518;2022-08-05T03:14:48;99241.00;;;22.70
10058;BMP180;5068;51.286;7.518;2022-08-05T03:16:21;99244.00;;;22.70
10058;BMP180;5068;51.286;7.518;2022-08-05T03:17:56;99265.00;;;22.70
10058;BMP180;5068;51.286;7.518;2022-08-05T03:19:30;99275.00;;;22.70
10058;BMP180;5068;51.286;7.518;2022-08-05T03:21:07;99274.00;;;22.70
10058;BMP180;5068;51.286;7.518;2022-08-05T03:22:40;99281.00;;;22.70
10058;BMP180;5068;51.286;7.518;2022-08-05T03:24:22;99290.00;;;22.70
10058;BMP180;5068;51.286;7.518;2022-08-05T03:26:03;99305.00;;;22.70
10058;BMP180;5068;51.286;7.518;2022-08-05T03:27:57;99304.00;;;22.60
10058;BMP180;5068;51.286;7.518;2022-08-05T03:29:32;99304.00;;;22.60
10058;BMP180;5068;51.286;7.518;2022-08-05T03:31:17;99318.00;;;22.60
10058;BMP180;5068;51.286;7.518;2022-08-05T03:33:13;99329.00;;;22.60
10058;BMP180;5068;51.286;7.518;2022-08-05T03:34:47;99332.00;;;22.50
10058;BMP180;5068;51.286;7.518;2022-08-05T03:36:22;99333.00;;;22.50
10058;BMP180;5068;51.286;7.518;2022-08-05T03:38:02;99313.00;;;22.50
10058;BMP180;5068;51.286;7.518;2022-08-05T03:39:35;99278.00;;;22.50
10058;BMP180;5068;51.286;7.518;2022-08-05T03:41:29;99272.00;;;22.50
10058;BMP180;5068;51.286;7.518;2022-08-05T03:43:09;99260.00;;;22.50
10058;BMP180;5068;51.286;7.518;2022-08-05T03:45:05;99228.00;;;22.50
10058;BMP180;5068;51.286;7.518;2022-08-05T03:46:54;99195.00;;;22.50
10058;BMP180;5068;51.286;7.518;2022-08-05T03:48:29;99192.00;;;22.60
10058;BMP180;5068;51.286;7.518;2022-08-05T03:50:07;99190.00;;;22.60
10058;BMP180;5068;51.286;7.518;2022-08-05T03:51:50;99177.00;;;22.60
10058;BMP180;5068;51.286;7.518;2022-08-05T03:53:51;99170.00;;;22.50
10058;BMP180;5068;51.286;7.518;2022-08-05T03:55:54;99159.00;;;22.50
10058;BMP180;5068;51.286;7.518;2022-08-05T03:57:47;99176.00;;;22.50
10058;BMP180;5068;51.286;7.518;2022-08-05T03:59:34;99188.00;;;22.50
10058;BMP180;5068;51.286;7.518;2022-08-05T04:01:21;99207.00;;;22.50
10058;BMP180;5068;51.286;7.518;2022-08-05T04:03:00;99194.00;;;22.50
10058;BMP180;5068;51.286;7.518;2022-08-05T04:04:38;99186.00;;;22.50
10058;BMP180;5068;51.286;7.518;2022-08-05T04:06:17;99181.00;;;22.40
10058;BMP180;5068;51.286;7.518;2022-08-05T04:07:52;99203.00;;;22.40
10058;BMP180;5068;51.286;7.518;2022-08-05T04:09:31;99197.00;;;22.40
10058;BMP180;5068;51.286;7.518;2022-08-05T04:11:08;99197.00;;;22.40
10058;BMP180;5068;51.286;7.518;2022-08-05T04:12:43;99198.00;;;22.40
10058;BMP180;5068;51.286;7.518;2022-08-05T04:14:18;99198.00;;;22.40
10058;BMP180;5068;51.286;7.518;2022-08-05T04:16:02;99190.00;;;22.40
10058;BMP180;5068;51.286;7.518;2022-08-05T04:17:36;99193.00;;;22.40
10058;BMP180;5068;51.286;7.518;2022-08-05T04:19:28;99194.00;;;22.40
10058;BMP180;5068;51.286;7.518;2022-08-05T04:21:05;99184.00;;;22.30
10058;BMP180;5068;51.286;7.518;2022-08-05T04:22:42;99182.00;;;22.30
10058;BMP180;5068;51.286;7.518;2022-08-05T04:24:15;99185.00;;;22.30
10058;BMP180;5068;51.286;7.518;2022-08-05T04:25:54;99191.00;;;22.30
10058;BMP180;5068;51.286;7.518;2022-08-05T04:27:32;99189.00;;;22.30
10058;BMP180;5068;51.286;7.518;2022-08-05T04:29:25;99175.00;;;22.30
10058;BMP180;5068;51.286;7.518;2022-08-05T04:31:01;99177.00;;;22.30
10058;BMP180;5068;51.286;7.518;2022-08-05T04:32:41;99185.00;;;22.30
10058;BMP180;5068;51.286;7.518;2022-08-05T04:34:15;99188.00;;;22.30
10058;BMP180;5068;51.286;7.518;2022-08-05T04:36:08;99178.00;;;22.30
10058;BMP180;5068;51.286;7.518;2022-08-05T04:38:01;99188.00;;;22.30
10058;BMP180;5068;51.286;7.518;2022-08-05T04:39:38;99186.00;;;22.30
10058;BMP180;5068;51.286;7.518;2022-08-05T04:41:12;99184.00;;;22.30
10058;BMP180;5068;51.286;7.518;2022-08-05T04:42:46;99182.00;;;22.30
10058;BMP180;5068;51.286;7.518;2022-08-05T04:44:21;99190.00;;;22.30
10058;BMP180;5068;51.286;7.518;2022-08-05T04:46:01;99187.00;;;22.30
10058;BMP180;5068;51.286;7.518;2022-08-05T04:47:36;99189.00;;;22.30
10058;BMP180;5068;51.286;7.518;2022-08-05T04:49:18;99191.00;;;22.30
10058;BMP180;5068;51.286;7.518;2022-08-05T04:51:11;99179.00;;;22.30
10058;BMP180;5068;51.286;7.518;2022-08-05T04:52:45;99179.00;;;22.30
10058;BMP180;5068;51.286;7.518;2022-08-05T04:54:20;99180.00;;;22.30
10058;BMP180;5068;51.286;7.518;2022-08-05T04:55:59;99174.00;;;22.30
10058;BMP180;5068;51.286;7.518;2022-08-05T04:57:53;99163.00;;;22.30
10058;BMP180;5068;51.286;7.518;2022-08-05T04:59:26;99159.00;;;22.30
10058;BMP180;5068;51.286;7.518;2022-08-05T05:01:10;99156.00;;;22.20
10058;BMP180;5068;51.286;7.518;2022-08-05T05:02:44;99162.00;;;22.20
10058;BMP180;5068;51.286;7.518;2022-08-05T05:04:18;99156.00;;;22.20
10058;BMP180;5068;51.286;7.518;2022-08-05T05:05:52;99158.00;;;22.20
10058;BMP180;5068;51.286;7.518;2022-08-05T05:07:47;99161.00;;;22.20
10058;BMP180;5068;51.286;7.518;2022-08-05T05:09:31;99172.00;;;22.20
10058;BMP180;5068;51.286;7.518;2022-08-05T05:11:09;99164.00;;;22.20
10058;BMP180;5068;51.286;7.518;2022-08-05T05:12:46;99167.00;;;22.20
10058;BMP180;5068;51.286;7.518;2022-08-05T05:14:22;99173.00;;;22.20
10058;BMP180;5068;51.286;7.518;2022-08-05T05:16:04;99171.00;;;22.20
10058;BMP180;5068;51.286;7.518;2022-08-05T05:17:39;99181.00;;;22.20
10058;BMP180;5068;51.286;7.518;2022-08-05T05:19:28;99168.00;;;22.20
10058;BMP180;5068;51.286;7.518;2022-08-05T05:21:16;99158.00;;;22.20
10058;BMP180;5068;51.286;7.518;2022-08-05T05:22:52;99150.00;;;22.30
10058;BMP180;5068;51.286;7.518;2022-08-05T05:24:25;99156.00;;;22.30
10058;BMP180;5068;51.286;7.518;2022-08-05T05:26:18;99148.00;;;22.30
10058;BMP180;5068;51.286;7.518;2022-08-05T05:28:04;99147.00;;;22.40
10058;BMP180;5068;51.286;7.518;2022-08-05T05:29:38;99155.00;;;22.40
10058;BMP180;5068;51.286;7.518;2022-08-05T05:31:32;99180.00;;;22.40
10058;BMP180;5068;51.286;7.518;2022-08-05T05:33:06;99183.00;;;22.40
10058;BMP180;5068;51.286;7.518;2022-08-05T05:34:48;99176.00;;;22.40
10058;BMP180;5068;51.286;7.518;2022-08-05T05:36:23;99196.00;;;22.40
10058;BMP180;5068;51.286;7.518;2022-08-05T05:38:02;99194.00;;;22.50
10058;BMP180;5068;51.286;7.518;2022-08-05T05:39:40;99196.00;;;22.50
10058;BMP180;5068;51.286;7.518;2022-08-05T05:41:16;99201.00;;;22.50
10058;BMP180;5068;51.286;7.518;2022-08-05T05:42:50;99206.00;;;22.50
10058;BMP180;5068;51.286;7.518;2022-08-05T05:44:24;99198.00;;;22.50
10058;BMP180;5068;51.286;7.518;2022-08-05T05:46:14;99207.00;;;22.50
10058;BMP180;5068;51.286;7.518;2022-08-05T05:47:50;99203.00;;;22.50
10058;BMP180;5068;51.286;7.518;2022-08-05T05:49:38;99214.00;;;22.50
10058;BMP180;5068;51.286;7.518;2022-08-05T05:51:18;99206.00;;;22.50
10058;BMP180;5068;51.286;7.518;2022-08-05T05:52:52;99211.00;;;22.50
10058;BMP180;5068;51.286;7.518;2022-08-05T05:54:27;99216.00;;;22.50
10058;BMP180;5068;51.286;7.518;2022-08-05T05:56:21;99207.00;;;22.50
10058;BMP180;5068;51.286;7.518;2022-08-05T05:58:03;99206.00;;;22.60
10058;BMP180;5068;51.286;7.518;2022-08-05T05:59:36;99200.00;;;22.60
10058;BMP180;5068;51.286;7.518;2022-08-05T06:01:11;99204.00;;;22.60
10058;BMP180;5068;51.286;7.518;2022-08-05T06:02:46;99196.00;;;22.60
10058;BMP180;5068;51.286;7.518;2022-08-05T06:04:21;99211.00;;;22.60
10058;BMP180;5068;51.286;7.518;2022-08-05T06:05:54;99212.00;;;22.60
10058;BMP180;5068;51.286;7.518;2022-08-05T06:07:28;99217.00;;;22.60
10058;BMP180;5068;51.286;7.518;2022-08-05T06:09:13;99209.00;;;22.60
10058;BMP180;5068;51.286;7.518;2022-08-05T06:10:58;99212.00;;;22.60
10058;BMP180;5068;51.286;7.518;2022-08-05T06:12:33;99211.00;;;22.60
10058;BMP180;5068;51.286;7.518;2022-08-05T06:14:13;99205.00;;;22.60
10058;BMP180;5068;51.286;7.518;2022-08-05T06:15:48;99206.00;;;22.60
10058;BMP180;5068;51.286;7.518;2022-08-05T06:17:41;99212.00;;;22.60
10058;BMP180;5068;51.286;7.518;2022-08-05T06:19:26;99217.00;;;22.60
10058;BMP180;5068;51.286;7.518;2022-08-05T06:21:06;99219.00;;;22.60
10058;BMP180;5068;51.286;7.518;2022-08-05T06:22:49;99230.00;;;22.60
10058;BMP180;5068;51.286;7.518;2022-08-05T06:24:23;99225.00;;;22.60
10058;BMP180;5068;51.286;7.518;2022-08-05T06:25:59;99228.00;;;22.60
10058;BMP180;5068;51.286;7.518;2022-08-05T06:27:52;99224.00;;;22.60
10058;BMP180;5068;51.286;7.518;2022-08-05T06:29:46;99221.00;;;22.60
10058;BMP180;5068;51.286;7.518;2022-08-05T06:31:38;99241.00;;;22.60
10058;BMP180;5068;51.286;7.518;2022-08-05T06:33:13;99234.00;;;22.60
10058;BMP180;5068;51.286;7.518;2022-08-05T06:34:50;99231.00;;;22.60
10058;BMP180;5068;51.286;7.518;2022-08-05T06:36:27;99229.00;;;22.60
10058;BMP180;5068;51.286;7.518;2022-08-05T06:38:21;99221.00;;;22.70
10058;BMP180;5068;51.286;7.518;2022-08-05T06:40:09;99228.00;;;22.70
10058;BMP180;5068;51.286;7.518;2022-08-05T06:41:46;99225.00;;;22.70
10058;BMP180;5068;51.286;7.518;2022-08-05T06:43:23;99228.00;;;22.70
10058;BMP180;5068;51.286;7.518;2022-08-05T06:45:16;99239.00;;;22.80
10058;BMP180;5068;51.286;7.518;2022-08-05T06:46:52;99232.00;;;22.80
10058;BMP180;5068;51.286;7.518;2022-08-05T06:48:27;99234.00;;;22.80
10058;BMP180;5068;51.286;7.518;2022-08-05T06:50:20;99243.00;;;22.80
10058;BMP180;5068;51.286;7.518;2022-08-05T06:51:55;99239.00;;;22.90
10058;BMP180;5068;51.286;7.518;2022-08-05T06:53:30;99239.00;;;22.90
10058;BMP180;5068;51.286;7.518;2022-08-05T06:55:10;99246.00;;;22.90
10058;BMP180;5068;51.286;7.518;2022-08-05T06:56:47;99257.00;;;22.90
10058;BMP180;5068;51.286;7.518;2022-08-05T06:58:40;99245.00;;;22.90
10058;BMP180;5068;51.286;7.518;2022-08-05T07:00:18;99251.00;;;22.90
10058;BMP180;5068;51.286;7.518;2022-08-05T07:01:56;99242.00;;;22.90
10058;BMP180;5068;51.286;7.518;2022-08-05T07:03:30;99245.00;;;23.00
10058;BMP180;5068;51.286;7.518;2022-08-05T07:05:05;99244.00;;;23.00
10058;BMP180;5068;51.286;7.518;2022-08-05T07:06:45;99247.00;;;23.00
10058;BMP180;5068;51.286;7.518;2022-08-05T07:08:21;99261.00;;;23.00
10058;BMP180;5068;51.286;7.518;2022-08-05T07:09:56;99257.00;;;23.10
10058;BMP180;5068;51.286;7.518;2022-08-05T07:11:30;99250.00;;;23.10
10058;BMP180;5068;51.286;7.518;2022-08-05T07:13:09;99253.00;;;23.10
10058;BMP180;5068;51.286;7.518;2022-08-05T07:15:21;99257.00;;;23.10
10058;BMP180;5068;51.286;7.518;2022-08-05T07:17:32;99255.00;;;23.10
10058;BMP180;5068;51.286;7.518;2022-08-05T07:19:27;99261.00;;;23.10
10058;BMP180;5068;51.286;7.518;2022-08-05T07:21:20;99265.00;;;23.10
10058;BMP180;5068;51.286;7.518;2022-08-05T07:22:57;99262.00;;;23.10
10058;BMP180;5068;51.286;7.518;2022-08-05T07:24:30;99272.00;;;23.20
10058;BMP180;5068;51.286;7.518;2022-08-05T07:26:15;99269.00;;;23.20
10058;BMP180;5068;51.286;7.518;2022-08-05T07:27:55;99272.00;;;23.20
10058;BMP180;5068;51.286;7.518;2022-08-05T07:29:38;99271.00;;;23.20
10058;BMP180;5068;51.286;7.518;2022-08-05T07:31:32;99272.00;;;23.20
10058;BMP180;5068;51.286;7.518;2022-08-05T07:33:25;99275.00;;;23.20
10058;BMP180;5068;51.286;7.518;2022-08-05T07:35:10;99278.00;;;23.20
10058;BMP180;5068;51.286;7.518;2022-08-05T07:37:04;99284.00;;;23.10
10058;BMP180;5068;51.286;7.518;2022-08-05T07:38:40;99289.00;;;23.10
10058;BMP180;5068;51.286;7.518;2022-08-05T07:40:16;99289.00;;;23.10
10058;BMP180;5068;51.286;7.518;2022-08-05T07:42:04;99286.00;;;23.10
10058;BMP180;5068;51.286;7.518;2022-08-05T07:43:46;99292.00;;;23.00
10058;BMP180;5068;51.286;7.518;2022-08-05T07:45:20;99291.00;;;23.00
10058;BMP180;5068;51.286;7.518;2022-08-05T07:47:14;99293.00;;;23.00
10058;BMP180;5068;51.286;7.518;2022-08-05T07:48:47;99293.00;;;22.90
10058;BMP180;5068;51.286;7.518;2022-08-05T07:50:37;99298.00;;;22.90
10058;BMP180;5068;51.286;7.518;2022-08-05T07:52:13;99304.00;;;22.90
10058;BMP180;5068;51.286;7.518;2022-08-05T07:53:47;99308.00;;;22.80
10058;BMP180;5068;51.286;7.518;2022-08-05T07:55:22;99305.00;;;22.80
10058;BMP180;5068;51.286;7.518;2022-08-05T07:57:17;99313.00;;;22.80
10058;BMP180;5068;51.286;7.518;2022-08-05T07:59:10;99310.00;;;22.80
10058;BMP180;5068;51.286;7.518;2022-08-05T08:00:47;99316.00;;;22.80
10058;BMP180;5068;51.286;7.518;2022-08-05T08:02:25;99319.00;;;22.70
10058;BMP180;5068;51.286;7.518;2022-08-05T08:04:20;99323.00;;;22.70
10058;BMP180;5068;51.286;7.518;2022-08-05T08:06:09;99320.00;;;22.70
10058;BMP180;5068;51.286;7.518;2022-08-05T08:07:42;99326.00;;;22.60
10058;BMP180;5068;51.286;7.518;2022-08-05T08:09:32;99326.00;;;22.60
10058;BMP180;5068;51.286;7.518;2022-08-05T08:11:05;99324.00;;;22.60
10058;BMP180;5068;51.286;7.518;2022-08-05T08:12:40;99323.00;;;22.60
10058;BMP180;5068;51.286;7.518;2022-08-05T08:14:21;99326.00;;;22.60
10058;BMP180;5068;51.286;7.518;2022-08-05T08:15:55;99325.00;;;22.60
10058;BMP180;5068;51.286;7.518;2022-08-05T08:17:49;99328.00;;;22.50
10058;BMP180;5068;51.286;7.518;2022-08-05T08:19:24;99328.00;;;22.50
10058;BMP180;5068;51.286;7.518;2022-08-05T08:21:18;99335.00;;;22.50
10058;BMP180;5068;51.286;7.518;2022-08-05T08:22:52;99328.00;;;22.50
10058;BMP180;5068;51.286;7.518;2022-08-05T08:24:26;99331.00;;;22.50
10058;BMP180;5068;51.286;7.518;2022-08-05T08:26:20;99339.00;;;22.60
10058;BMP180;5068;51.286;7.518;2022-08-05T08:28:01;99341.00;;;22.60
10058;BMP180;5068;51.286;7.518;2022-08-05T08:29:34;99361.00;;;22.50
10058;BMP180;5068;51.286;7.518;2022-08-05T08:31:29;99359.00;;;22.50
10058;BMP180;5068;51.286;7.518;2022-08-05T08:33:08;99356.00;;;22.50
10058;BMP180;5068;51.286;7.518;2022-08-05T08:34:44;99363.00;;;22.50
10058;BMP180;5068;51.286;7.518;2022-08-05T08:36:18;99367.00;;;22.50
10058;BMP180;5068;51.286;7.518;2022-08-05T08:38:12;99368.00;;;22.50
10058;BMP180;5068;51.286;7.518;2022-08-05T08:40:04;99370.00;;;22.40
10058;BMP180;5068;51.286;7.518;2022-08-05T08:41:41;99375.00;;;22.40
10058;BMP180;5068;51.286;7.518;2022-08-05T08:43:31;99381.00;;;22.30
10058;BMP180;5068;51.286;7.518;2022-08-05T08:45:26;99382.00;;;22.30
10058;BMP180;5068;51.286;7.518;2022-08-05T08:47:05;99383.00;;;22.30
10058;BMP180;5068;51.286;7.518;2022-08-05T08:49:02;99387.00;;;22.30
10058;BMP180;5068;51.286;7.518;2022-08-05T08:50:56;99387.00;;;22.20
10058;BMP180;5068;51.286;7.518;2022-08-05T08:52:53;99385.00;;;22.20
10058;BMP180;5068;51.286;7.518;2022-08-05T08:54:30;99393.00;;;22.30
10058;BMP180;5068;51.286;7.518;2022-08-05T08:56:04;99390.00;;;22.30
10058;BMP180;5068;51.286;7.518;2022-08-05T08:57:38;99396.00;;;22.30
10058;BMP180;5068;51.286;7.518;2022-08-05T08:59:30;99402.00;;;22.20
10058;BMP180;5068;51.286;7.518;2022-08-05T09:01:06;99402.00;;;22.20
10058;BMP180;5068;51.286;7.518;2022-08-05T09:02:49;99406.00;;;22.20
10058;BMP180;5068;51.286;7.518;2022-08-05T09:04:24;99399.00;;;22.20
10058;BMP180;5068;51.286;7.518;2022-08-05T09:06:02;99407.00;;;22.20
10058;BMP180;5068;51.286;7.518;2022-08-05T09:07:41;99412.00;;;22.20
10058;BMP180;5068;51.286;7.518;2022-08-05T09:09:29;99417.00;;;22.20
10058;BMP180;5068;51.286;7.518;2022-08-05T09:11:07;99422.00;;;22.20
10058;BMP180;5068;51.286;7.518;2022-08-05T09:12:44;99423.00;;;22.10
10058;BMP180;5068;51.286;7.518;2022-08-05T09:14:24;99429.00;;;22.10
10058;BMP180;5068;51.286;7.518;2022-08-05T09:16:19;99432.00;;;22.10
10058;BMP180;5068;51.286;7.518;2022-08-05T09:17:59;99436.00;;;22.10
10058;BMP180;5068;51.286;7.518;2022-08-05T09:19:34;99433.00;;;22.10
10058;BMP180;5068;51.286;7.518;2022-08-05T09:21:28;99447.00;;;22.00
10058;BMP180;5068;51.286;7.518;2022-08-05T09:23:22;99454.00;;;22.00
10058;BMP180;5068;51.286;7.518;2022-08-05T09:25:08;99448.00;;;22.00
10058;BMP180;5068;51.286;7.518;2022-08-05T09:26:57;99439.00;;;21.90
10058;BMP180;5068;51.286;7.518;2022-08-05T09:28:32;99443.00;;;21.90
10058;BMP180;5068;51.286;7.518;2022-08-05T09:30:07;99447.00;;;21.90
10058;BMP180;5068;51.286;7.518;2022-08-05T09:32:01;99448.00;;;21.80
10058;BMP180;5068;51.286;7.518;2022-08-05T09:33:59;99438.00;;;21.80
10058;BMP180;5068;51.286;7.518;2022-08-05T09:35:34;99459.00;;;21.70
10058;BMP180;5068;51.286;7.518;2022-08-05T09:37:17;99454.00;;;21.70
10058;BMP180;5068;51.286;7.518;2022-08-05T09:39:12;99455.00;;;21.60
10058;BMP180;5068;51.286;7.518;2022-08-05T09:40:49;99465.00;;;21.60
10058;BMP180;5068;51.286;7.518;2022-08-05T09:42:25;99463.00;;;21.60
10058;BMP180;5068;51.286;7.518;2022-08-05T09:44:03;99455.00;;;21.60
10058;BMP180;5068;51.286;7.518;2022-08-05T09:45:39;99463.00;;;21.50
10058;BMP180;5068;51.286;7.518;2022-08-05T09:47:34;99468.00;;;21.50
10058;BMP180;5068;51.286;7.518;2022-08-05T09:49:29;99472.00;;;21.40
10058;BMP180;5068;51.286;7.518;2022-08-05T09:51:34;99470.00;;;21.40
10058;BMP180;5068;51.286;7.518;2022-08-05T09:53:11;99469.00;;;21.30
10058;BMP180;5068;51.286;7.518;2022-08-05T09:55:00;99474.00;;;21.30
10058;BMP180;5068;51.286;7.518;2022-08-05T09:56:54;99470.00;;;21.30
10058;BMP180;5068;51.286;7.518;2022-08-05T09:58:32;99465.00;;;21.30
10058;BMP180;5068;51.286;7.518;2022-08-05T10:00:10;99468.00;;;21.20
10058;BMP180;5068;51.286;7.518;2022-08-05T10:01:44;99468.00;;;21.20
10058;BMP180;5068;51.286;7.518;2022-08-05T10:03:29;99481.00;;;21.10
10058;BMP180;5068;51.286;7.518;2022-08-05T10:05:28;99485.00;;;21.10